sensor_id;sensor_type;location;lat;lon;timestamp;P1;durP1;ratioP1;P2;durP2;ratioP2
1336;SDS011;662;48.814;9.318;2023-08-12T00:01:09;5.07;;;4.67;;
1336;SDS011;662;48.814;9.318;2023-08-12T00:03:35;4.37;;;3.97;;
1336;SDS011;662;48.814;9.318;2023-08-12T00:06:00;6.27;;;4.63;;
1336;SDS011;662;48.814;9.318;2023-08-12T00:08:27;5.03;;;4.60;;
1336;SDS011;662;48.814;9.318;2023-08-12T00:10:52;4.57;;;4.20;;
1336;SDS011;662;48.814;9.318;2023-08-12T00:13:18;4.43;;;4.03;;
1336;SDS011;662;48.814;9.318;2023-08-12T00:15:44;4.97;;;4.50;;
1336;SDS011;662;48.814;9.318;2023-08-12T00:18:10;5.23;;;4.73;;
1336;SDS011;662;48.814;9.318;2023-08-12T00:20:35;4.83;;;4.40;;
1336;SDS011;662;48.814;9.318;2023-08-12T00:23:03;5.73;;;5.13;;
1336;SDS011;662;48.814;9.318;2023-08-12T00:25:29;4.63;;;4.23;;
1336;SDS011;662;48.814;9.318;2023-08-12T00:27:55;5.30;;;4.80;;
1336;SDS011;662;48.814;9.318;2023-08-12T00:30:20;7.50;;;5.57;;
1336;SDS011;662;48.814;9.318;2023-08-12T00:32:46;7.53;;;4.90;;
1336;SDS011;662;48.814;9.318;2023-08-12T00:35:12;6.57;;;4.80;;
1336;SDS011;662;48.814;9.318;2023-08-12T00:37:37;5.53;;;5.03;;
1336;SDS011;662;48.814;9.318;2023-08-12T00:40:03;5.40;;;4.37;;
1336;SDS011;662;48.814;9.318;2023-08-12T00:42:29;6.10;;;4.70;;
1336;SDS011;662;48.814;9.318;2023-08-12T00:44:55;4.90;;;4.50;;
1336;SDS011;662;48.814;9.318;2023-08-12T00:47:22;4.40;;;4.00;;
1336;SDS011;662;48.814;9.318;2023-08-12T00:49:47;5.13;;;4.60;;
1336;SDS011;662;48.814;9.318;2023-08-12T00:52:14;6.33;;;4.60;;
1336;SDS011;662;48.814;9.318;2023-08-12T00:54:41;5.03;;;4.53;;
1336;SDS011;662;48.814;9.318;2023-08-12T00:57:07;4.70;;;4.30;;
1336;SDS011;662;48.814;9.318;2023-08-12T00:59:34;5.43;;;4.93;;
1336;SDS011;662;48.814;9.318;2023-08-12T01:02:01;5.03;;;4.40;;
1336;SDS011;662;48.814;9.318;2023-08-12T01:04:27;4.87;;;4.47;;
1336;SDS011;662;48.814;9.318;2023-08-12T01:06:53;5.87;;;4.43;;
1336;SDS011;662;48.814;9.318;2023-08-12T01:09:18;5.20;;;4.60;;
1336;SDS011;662;48.814;9.318;2023-08-12T01:11:55;5.00;;;4.60;;
1336;SDS011;662;48.814;9.318;2023-08-12T01:17:09;4.90;;;4.50;;
1336;SDS011;662;48.814;9.318;2023-08-12T01:19:38;4.53;;;4.13;;
1336;SDS011;662;48.814;9.318;2023-08-12T01:22:10;4.50;;;4.10;;
1336;SDS011;662;48.814;9.318;2023-08-12T01:24:40;4.30;;;3.90;;
1336;SDS011;662;48.814;9.318;2023-08-12T01:27:07;5.07;;;4.63;;
1336;SDS011;662;48.814;9.318;2023-08-12T01:29:35;4.97;;;4.17;;
1336;SDS011;662;48.814;9.318;2023-08-12T01:37:30;4.37;;;3.97;;
1336;SDS011;662;48.814;9.318;2023-08-12T01:39:59;4.90;;;4.50;;
1336;SDS011;662;48.814;9.318;2023-08-12T01:42:27;4.53;;;4.17;;
1336;SDS011;662;48.814;9.318;2023-08-12T01:44:57;10.43;;;4.60;;
1336;SDS011;662;48.814;9.318;2023-08-12T01:47:23;3.97;;;3.67;;
1336;SDS011;662;48.814;9.318;2023-08-12T01:49:48;5.00;;;4.60;;
1336;SDS011;662;48.814;9.318;2023-08-12T01:52:15;4.70;;;3.97;;
1336;SDS011;662;48.814;9.318;2023-08-12T01:54:41;3.90;;;3.60;;
1336;SDS011;662;48.814;9.318;2023-08-12T01:57:06;4.60;;;4.20;;
1336;SDS011;662;48.814;9.318;2023-08-12T01:59:34;5.07;;;4.00;;
1336;SDS011;662;48.814;9.318;2023-08-12T02:02:00;4.97;;;4.10;;
1336;SDS011;662;48.814;9.318;2023-08-12T02:04:26;4.73;;;4.20;;
1336;SDS011;662;48.814;9.318;2023-08-12T02:06:52;5.00;;;4.60;;
1336;SDS011;662;48.814;9.318;2023-08-12T02:09:18;4.87;;;4.37;;
1336;SDS011;662;48.814;9.318;2023-08-12T02:11:44;4.40;;;4.10;;
1336;SDS011;662;48.814;9.318;2023-08-12T02:14:09;5.23;;;4.77;;
1336;SDS011;662;48.814;9.318;2023-08-12T02:16:35;4.87;;;4.47;;
1336;SDS011;662;48.814;9.318;2023-08-12T02:19:01;5.17;;;4.67;;
1336;SDS011;662;48.814;9.318;2023-08-12T02:21:26;4.70;;;4.30;;
1336;SDS011;662;48.814;9.318;2023-08-12T02:23:52;5.13;;;4.70;;
1336;SDS011;662;48.814;9.318;2023-08-12T02:26:17;4.77;;;4.37;;
1336;SDS011;662;48.814;9.318;2023-08-12T02:28:43;4.47;;;4.10;;
1336;SDS011;662;48.814;9.318;2023-08-12T02:31:09;5.13;;;4.63;;
1336;SDS011;662;48.814;9.318;2023-08-12T02:33:34;5.93;;;4.53;;
1336;SDS011;662;48.814;9.318;2023-08-12T02:36:00;5.20;;;4.53;;
1336;SDS011;662;48.814;9.318;2023-08-12T02:38:26;5.20;;;4.70;;
1336;SDS011;662;48.814;9.318;2023-08-12T02:40:51;4.80;;;4.33;;
1336;SDS011;662;48.814;9.318;2023-08-12T02:43:17;4.80;;;4.40;;
1336;SDS011;662;48.814;9.318;2023-08-12T02:45:42;4.67;;;4.27;;
1336;SDS011;662;48.814;9.318;2023-08-12T02:48:11;6.50;;;5.00;;
1336;SDS011;662;48.814;9.318;2023-08-12T02:50:38;5.47;;;4.97;;
1336;SDS011;662;48.814;9.318;2023-08-12T02:53:04;5.30;;;4.80;;
1336;SDS011;662;48.814;9.318;2023-08-12T02:55:30;4.70;;;4.10;;
1336;SDS011;662;48.814;9.318;2023-08-12T02:57:59;5.10;;;4.60;;
1336;SDS011;662;48.814;9.318;2023-08-12T03:00:26;5.57;;;4.63;;
1336;SDS011;662;48.814;9.318;2023-08-12T03:02:52;4.77;;;4.37;;
1336;SDS011;662;48.814;9.318;2023-08-12T03:05:18;5.00;;;4.50;;
1336;SDS011;662;48.814;9.318;2023-08-12T03:07:44;4.10;;;3.80;;
1336;SDS011;662;48.814;9.318;2023-08-12T03:10:10;4.73;;;4.40;;
1336;SDS011;662;48.814;9.318;2023-08-12T03:12:35;5.53;;;5.03;;
1336;SDS011;662;48.814;9.318;2023-08-12T03:15:02;5.80;;;4.70;;
1336;SDS011;662;48.814;9.318;2023-08-12T03:17:28;4.80;;;4.40;;
1336;SDS011;662;48.814;9.318;2023-08-12T03:19:53;5.77;;;4.80;;
1336;SDS011;662;48.814;9.318;2023-08-12T03:22:19;5.53;;;5.00;;
1336;SDS011;662;48.814;9.318;2023-08-12T03:24:45;7.50;;;5.90;;
1336;SDS011;662;48.814;9.318;2023-08-12T03:27:11;5.20;;;4.70;;
1336;SDS011;662;48.814;9.318;2023-08-12T03:29:37;5.23;;;4.77;;
1336;SDS011;662;48.814;9.318;2023-08-12T03:32:02;5.10;;;4.70;;
1336;SDS011;662;48.814;9.318;2023-08-12T03:34:28;5.20;;;4.77;;
1336;SDS011;662;48.814;9.318;2023-08-12T03:36:56;7.33;;;5.30;;
1336;SDS011;662;48.814;9.318;2023-08-12T03:39:22;5.23;;;4.73;;
1336;SDS011;662;48.814;9.318;2023-08-12T03:41:48;5.30;;;4.90;;
1336;SDS011;662;48.814;9.318;2023-08-12T03:44:15;5.23;;;4.50;;
1336;SDS011;662;48.814;9.318;2023-08-12T03:46:41;5.63;;;5.23;;
1336;SDS011;662;48.814;9.318;2023-08-12T03:49:07;5.37;;;4.97;;
1336;SDS011;662;48.814;9.318;2023-08-12T03:51:33;5.50;;;4.93;;
1336;SDS011;662;48.814;9.318;2023-08-12T03:53:58;4.93;;;4.47;;
1336;SDS011;662;48.814;9.318;2023-08-12T03:56:24;5.33;;;4.93;;
1336;SDS011;662;48.814;9.318;2023-08-12T03:58:51;5.40;;;4.90;;
1336;SDS011;662;48.814;9.318;2023-08-12T04:01:17;6.60;;;5.93;;
1336;SDS011;662;48.814;9.318;2023-08-12T04:03:42;4.90;;;4.50;;
1336;SDS011;662;48.814;9.318;2023-08-12T04:06:08;5.17;;;4.73;;
1336;SDS011;662;48.814;9.318;2023-08-12T04:08:33;6.27;;;5.50;;
1336;SDS011;662;48.814;9.318;2023-08-12T04:10:59;5.20;;;4.73;;
1336;SDS011;662;48.814;9.318;2023-08-12T04:13:25;4.77;;;4.37;;
1336;SDS011;662;48.814;9.318;2023-08-12T04:15:51;5.63;;;5.13;;
1336;SDS011;662;48.814;9.318;2023-08-12T04:18:18;5.20;;;4.70;;
1336;SDS011;662;48.814;9.318;2023-08-12T04:20:48;5.20;;;4.70;;
1336;SDS011;662;48.814;9.318;2023-08-12T04:23:14;6.67;;;5.17;;
1336;SDS011;662;48.814;9.318;2023-08-12T04:25:42;5.43;;;5.03;;
1336;SDS011;662;48.814;9.318;2023-08-12T04:28:12;5.70;;;5.10;;
1336;SDS011;662;48.814;9.318;2023-08-12T04:30:45;5.20;;;4.63;;
1336;SDS011;662;48.814;9.318;2023-08-12T04:33:12;5.60;;;5.10;;
1336;SDS011;662;48.814;9.318;2023-08-12T04:35:38;9.20;;;5.20;;
1336;SDS011;662;48.814;9.318;2023-08-12T04:38:04;5.20;;;4.80;;
1336;SDS011;662;48.814;9.318;2023-08-12T04:40:31;5.37;;;4.90;;
1336;SDS011;662;48.814;9.318;2023-08-12T04:42:58;6.10;;;4.70;;
1336;SDS011;662;48.814;9.318;2023-08-12T04:45:24;5.53;;;4.97;;
1336;SDS011;662;48.814;9.318;2023-08-12T04:47:49;5.10;;;4.60;;
1336;SDS011;662;48.814;9.318;2023-08-12T04:50:15;5.50;;;5.00;;
1336;SDS011;662;48.814;9.318;2023-08-12T04:52:41;6.67;;;5.00;;
1336;SDS011;662;48.814;9.318;2023-08-12T04:55:06;5.03;;;4.60;;
1336;SDS011;662;48.814;9.318;2023-08-12T04:57:32;4.80;;;4.40;;
1336;SDS011;662;48.814;9.318;2023-08-12T04:59:58;5.07;;;4.57;;
1336;SDS011;662;48.814;9.318;2023-08-12T05:02:24;5.20;;;4.77;;
1336;SDS011;662;48.814;9.318;2023-08-12T05:04:50;5.90;;;5.33;;
1336;SDS011;662;48.814;9.318;2023-08-12T05:07:16;4.90;;;4.50;;
1336;SDS011;662;48.814;9.318;2023-08-12T05:09:42;5.50;;;5.00;;
1336;SDS011;662;48.814;9.318;2023-08-12T05:12:09;5.53;;;5.07;;
1336;SDS011;662;48.814;9.318;2023-08-12T05:14:36;5.90;;;5.40;;
1336;SDS011;662;48.814;9.318;2023-08-12T05:17:01;5.03;;;4.53;;
1336;SDS011;662;48.814;9.318;2023-08-12T05:19:27;5.70;;;5.27;;
1336;SDS011;662;48.814;9.318;2023-08-12T05:21:53;6.17;;;5.53;;
1336;SDS011;662;48.814;9.318;2023-08-12T05:24:18;6.83;;;5.00;;
1336;SDS011;662;48.814;9.318;2023-08-12T05:26:44;4.70;;;4.30;;
1336;SDS011;662;48.814;9.318;2023-08-12T05:29:10;4.67;;;4.27;;
1336;SDS011;662;48.814;9.318;2023-08-12T05:31:35;5.53;;;5.00;;
1336;SDS011;662;48.814;9.318;2023-08-12T05:34:01;5.80;;;5.10;;
1336;SDS011;662;48.814;9.318;2023-08-12T05:36:27;5.47;;;4.97;;
1336;SDS011;662;48.814;9.318;2023-08-12T05:38:53;5.07;;;4.67;;
1336;SDS011;662;48.814;9.318;2023-08-12T05:41:19;6.00;;;5.50;;
1336;SDS011;662;48.814;9.318;2023-08-12T05:43:45;5.60;;;5.20;;
1336;SDS011;662;48.814;9.318;2023-08-12T05:46:10;6.20;;;5.60;;
1336;SDS011;662;48.814;9.318;2023-08-12T05:48:36;5.40;;;4.90;;
1336;SDS011;662;48.814;9.318;2023-08-12T05:51:02;5.23;;;4.73;;
1336;SDS011;662;48.814;9.318;2023-08-12T05:53:27;5.07;;;4.67;;
1336;SDS011;662;48.814;9.318;2023-08-12T05:55:53;5.47;;;4.97;;
1336;SDS011;662;48.814;9.318;2023-08-12T05:58:18;4.70;;;4.30;;
1336;SDS011;662;48.814;9.318;2023-08-12T06:00:45;7.20;;;5.70;;
1336;SDS011;662;48.814;9.318;2023-08-12T06:03:11;5.10;;;4.63;;
1336;SDS011;662;48.814;9.318;2023-08-12T06:05:37;5.47;;;5.00;;
1336;SDS011;662;48.814;9.318;2023-08-12T06:08:03;5.30;;;4.80;;
1336;SDS011;662;48.814;9.318;2023-08-12T06:10:29;7.20;;;5.87;;
1336;SDS011;662;48.814;9.318;2023-08-12T06:12:54;5.33;;;4.90;;
1336;SDS011;662;48.814;9.318;2023-08-12T06:15:20;6.03;;;5.53;;
1336;SDS011;662;48.814;9.318;2023-08-12T06:17:45;5.80;;;5.30;;
1336;SDS011;662;48.814;9.318;2023-08-12T06:20:11;5.87;;;5.20;;
1336;SDS011;662;48.814;9.318;2023-08-12T06:22:37;5.13;;;4.50;;
1336;SDS011;662;48.814;9.318;2023-08-12T06:25:03;5.50;;;5.00;;
1336;SDS011;662;48.814;9.318;2023-08-12T06:27:28;6.90;;;6.20;;
1336;SDS011;662;48.814;9.318;2023-08-12T06:29:54;5.27;;;4.77;;
1336;SDS011;662;48.814;9.318;2023-08-12T06:32:20;5.70;;;4.80;;
1336;SDS011;662;48.814;9.318;2023-08-12T06:34:45;6.30;;;5.70;;
1336;SDS011;662;48.814;9.318;2023-08-12T06:37:11;5.53;;;5.00;;
1336;SDS011;662;48.814;9.318;2023-08-12T06:39:36;5.50;;;5.00;;
1336;SDS011;662;48.814;9.318;2023-08-12T06:42:02;5.93;;;5.33;;
1336;SDS011;662;48.814;9.318;2023-08-12T06:44:28;5.43;;;4.93;;
1336;SDS011;662;48.814;9.318;2023-08-12T06:46:54;5.87;;;5.30;;
1336;SDS011;662;48.814;9.318;2023-08-12T06:49:19;5.10;;;4.70;;
1336;SDS011;662;48.814;9.318;2023-08-12T06:51:45;5.70;;;5.10;;
1336;SDS011;662;48.814;9.318;2023-08-12T06:54:11;5.63;;;5.10;;
1336;SDS011;662;48.814;9.318;2023-08-12T06:56:36;6.23;;;5.63;;
1336;SDS011;662;48.814;9.318;2023-08-12T06:59:02;5.23;;;4.73;;
1336;SDS011;662;48.814;9.318;2023-08-12T07:01:28;5.90;;;5.40;;
1336;SDS011;662;48.814;9.318;2023-08-12T07:03:53;5.27;;;4.80;;
1336;SDS011;662;48.814;9.318;2023-08-12T07:06:19;6.33;;;5.23;;
1336;SDS011;662;48.814;9.318;2023-08-12T07:08:44;5.53;;;5.03;;
1336;SDS011;662;48.814;9.318;2023-08-12T07:11:10;6.77;;;5.70;;
1336;SDS011;662;48.814;9.318;2023-08-12T07:13:35;6.10;;;4.83;;
1336;SDS011;662;48.814;9.318;2023-08-12T07:16:01;5.43;;;4.97;;
1336;SDS011;662;48.814;9.318;2023-08-12T07:18:27;5.73;;;5.20;;
1336;SDS011;662;48.814;9.318;2023-08-12T07:20:54;5.33;;;4.83;;
1336;SDS011;662;48.814;9.318;2023-08-12T07:23:19;5.50;;;5.00;;
1336;SDS011;662;48.814;9.318;2023-08-12T07:25:46;5.70;;;5.20;;
1336;SDS011;662;48.814;9.318;2023-08-12T07:28:11;5.90;;;5.40;;
1336;SDS011;662;48.814;9.318;2023-08-12T07:30:37;5.07;;;4.67;;
1336;SDS011;662;48.814;9.318;2023-08-12T07:33:03;5.17;;;4.77;;
1336;SDS011;662;48.814;9.318;2023-08-12T07:35:30;5.60;;;5.00;;
1336;SDS011;662;48.814;9.318;2023-08-12T07:37:55;5.63;;;5.13;;
1336;SDS011;662;48.814;9.318;2023-08-12T07:40:21;5.67;;;5.17;;
1336;SDS011;662;48.814;9.318;2023-08-12T07:42:47;5.30;;;4.80;;
1336;SDS011;662;48.814;9.318;2023-08-12T07:45:13;7.70;;;5.00;;
1336;SDS011;662;48.814;9.318;2023-08-12T07:47:38;5.97;;;5.23;;
1336;SDS011;662;48.814;9.318;2023-08-12T07:50:04;5.53;;;5.03;;
1336;SDS011;662;48.814;9.318;2023-08-12T07:52:30;6.03;;;5.53;;
1336;SDS011;662;48.814;9.318;2023-08-12T07:54:56;5.93;;;5.33;;
1336;SDS011;662;48.814;9.318;2023-08-12T07:57:21;4.97;;;4.57;;
1336;SDS011;662;48.814;9.318;2023-08-12T07:59:49;6.07;;;5.53;;
1336;SDS011;662;48.814;9.318;2023-08-12T08:02:15;5.87;;;5.37;;
1336;SDS011;662;48.814;9.318;2023-08-12T08:04:41;6.00;;;5.43;;
1336;SDS011;662;48.814;9.318;2023-08-12T08:07:07;5.43;;;5.00;;
1336;SDS011;662;48.814;9.318;2023-08-12T08:09:33;5.47;;;4.97;;
1336;SDS011;662;48.814;9.318;2023-08-12T08:11:59;6.20;;;5.60;;
1336;SDS011;662;48.814;9.318;2023-08-12T08:14:25;5.90;;;5.40;;
1336;SDS011;662;48.814;9.318;2023-08-12T08:16:52;5.80;;;5.30;;
1336;SDS011;662;48.814;9.318;2023-08-12T08:19:18;5.73;;;5.23;;
1336;SDS011;662;48.814;9.318;2023-08-12T08:21:44;5.53;;;5.07;;
1336;SDS011;662;48.814;9.318;2023-08-12T08:24:10;5.60;;;5.10;;
1336;SDS011;662;48.814;9.318;2023-08-12T08:26:38;5.00;;;4.60;;
1336;SDS011;662;48.814;9.318;2023-08-12T08:29:05;5.30;;;4.80;;
1336;SDS011;662;48.814;9.318;2023-08-12T08:31:31;5.70;;;5.20;;
1336;SDS011;662;48.814;9.318;2023-08-12T08:33:57;5.10;;;4.60;;
1336;SDS011;662;48.814;9.318;2023-08-12T08:36:22;6.70;;;6.10;;
1336;SDS011;662;48.814;9.318;2023-08-12T08:38:48;8.33;;;6.30;;
1336;SDS011;662;48.814;9.318;2023-08-12T08:41:14;6.90;;;6.27;;
1336;SDS011;662;48.814;9.318;2023-08-12T08:43:42;6.03;;;5.53;;
1336;SDS011;662;48.814;9.318;2023-08-12T08:46:14;5.90;;;5.30;;
1336;SDS011;662;48.814;9.318;2023-08-12T08:48:41;5.50;;;5.10;;
1336;SDS011;662;48.814;9.318;2023-08-12T08:51:08;5.70;;;5.30;;
1336;SDS011;662;48.814;9.318;2023-08-12T08:53:39;5.30;;;4.90;;
1336;SDS011;662;48.814;9.318;2023-08-12T08:56:06;5.73;;;5.23;;
1336;SDS011;662;48.814;9.318;2023-08-12T08:58:33;5.93;;;5.43;;
1336;SDS011;662;48.814;9.318;2023-08-12T09:00:59;6.37;;;4.77;;
1336;SDS011;662;48.814;9.318;2023-08-12T09:03:26;5.97;;;5.27;;
1336;SDS011;662;48.814;9.318;2023-08-12T09:05:52;5.80;;;5.30;;
1336;SDS011;662;48.814;9.318;2023-08-12T09:08:21;5.77;;;5.20;;
1336;SDS011;662;48.814;9.318;2023-08-12T09:10:48;5.80;;;5.30;;
1336;SDS011;662;48.814;9.318;2023-08-12T09:13:14;5.93;;;5.40;;
1336;SDS011;662;48.814;9.318;2023-08-12T09:15:43;5.80;;;5.30;;
1336;SDS011;662;48.814;9.318;2023-08-12T09:18:09;6.53;;;5.87;;
1336;SDS011;662;48.814;9.318;2023-08-12T09:20:34;4.93;;;4.60;;
1336;SDS011;662;48.814;9.318;2023-08-12T09:23:01;5.50;;;5.00;;
1336;SDS011;662;48.814;9.318;2023-08-12T09:25:27;5.40;;;4.67;;
1336;SDS011;662;48.814;9.318;2023-08-12T09:28:01;5.77;;;5.27;;
1336;SDS011;662;48.814;9.318;2023-08-12T09:30:30;5.40;;;4.90;;
1336;SDS011;662;48.814;9.318;2023-08-12T09:33:02;4.97;;;4.57;;
1336;SDS011;662;48.814;9.318;2023-08-12T09:35:36;5.10;;;4.53;;
1336;SDS011;662;48.814;9.318;2023-08-12T09:38:04;5.40;;;4.50;;
1336;SDS011;662;48.814;9.318;2023-08-12T09:40:34;5.40;;;4.90;;
1336;SDS011;662;48.814;9.318;2023-08-12T09:43:01;4.60;;;4.30;;
1336;SDS011;662;48.814;9.318;2023-08-12T09:45:27;4.70;;;4.30;;
1336;SDS011;662;48.814;9.318;2023-08-12T09:47:54;4.60;;;4.27;;
1336;SDS011;662;48.814;9.318;2023-08-12T09:50:23;5.53;;;4.27;;
1336;SDS011;662;48.814;9.318;2023-08-12T09:52:50;4.70;;;4.30;;
1336;SDS011;662;48.814;9.318;2023-08-12T09:55:17;3.90;;;3.60;;
1336;SDS011;662;48.814;9.318;2023-08-12T09:57:44;4.40;;;4.10;;
1336;SDS011;662;48.814;9.318;2023-08-12T10:00:14;4.60;;;3.90;;
1336;SDS011;662;48.814;9.318;2023-08-12T10:02:44;3.80;;;3.50;;
1336;SDS011;662;48.814;9.318;2023-08-12T10:05:12;4.70;;;4.30;;
1336;SDS011;662;48.814;9.318;2023-08-12T10:07:41;5.93;;;4.07;;
1336;SDS011;662;48.814;9.318;2023-08-12T10:10:08;4.73;;;4.33;;
1336;SDS011;662;48.814;9.318;2023-08-12T10:12:34;4.17;;;3.87;;
1336;SDS011;662;48.814;9.318;2023-08-12T10:15:03;4.00;;;3.70;;
1336;SDS011;662;48.814;9.318;2023-08-12T10:17:31;5.80;;;4.07;;
1336;SDS011;662;48.814;9.318;2023-08-12T10:20:00;4.40;;;4.00;;
1336;SDS011;662;48.814;9.318;2023-08-12T10:22:29;4.90;;;4.50;;
1336;SDS011;662;48.814;9.318;2023-08-12T10:24:59;4.20;;;3.80;;
1336;SDS011;662;48.814;9.318;2023-08-12T10:27:27;4.63;;;3.70;;
1336;SDS011;662;48.814;9.318;2023-08-12T10:29:55;4.27;;;3.90;;
1336;SDS011;662;48.814;9.318;2023-08-12T10:32:26;6.60;;;3.60;;
1336;SDS011;662;48.814;9.318;2023-08-12T10:34:55;3.50;;;3.20;;
1336;SDS011;662;48.814;9.318;2023-08-12T10:37:23;3.80;;;3.50;;
1336;SDS011;662;48.814;9.318;2023-08-12T10:39:51;4.70;;;4.27;;
1336;SDS011;662;48.814;9.318;2023-08-12T10:45:04;3.83;;;3.53;;
1336;SDS011;662;48.814;9.318;2023-08-12T10:47:37;4.10;;;3.80;;
1336;SDS011;662;48.814;9.318;2023-08-12T10:50:15;4.80;;;3.97;;
1336;SDS011;662;48.814;9.318;2023-08-12T10:52:45;4.60;;;4.20;;
1336;SDS011;662;48.814;9.318;2023-08-12T10:55:18;4.73;;;4.33;;
1336;SDS011;662;48.814;9.318;2023-08-12T10:57:45;3.53;;;3.03;;
1336;SDS011;662;48.814;9.318;2023-08-12T11:00:15;3.60;;;3.30;;
1336;SDS011;662;48.814;9.318;2023-08-12T11:02:46;4.07;;;3.70;;
1336;SDS011;662;48.814;9.318;2023-08-12T11:05:19;3.63;;;3.33;;
1336;SDS011;662;48.814;9.318;2023-08-12T11:07:49;3.63;;;3.30;;
1336;SDS011;662;48.814;9.318;2023-08-12T11:10:26;3.60;;;3.30;;
1336;SDS011;662;48.814;9.318;2023-08-12T11:15:31;6.37;;;3.10;;
1336;SDS011;662;48.814;9.318;2023-08-12T11:18:02;3.57;;;3.00;;
1336;SDS011;662;48.814;9.318;2023-08-12T11:20:33;3.13;;;2.93;;
1336;SDS011;662;48.814;9.318;2023-08-12T11:22:59;3.27;;;2.97;;
1336;SDS011;662;48.814;9.318;2023-08-12T11:25:27;4.07;;;3.27;;
1336;SDS011;662;48.814;9.318;2023-08-12T11:27:54;3.10;;;2.80;;
1336;SDS011;662;48.814;9.318;2023-08-12T11:30:21;3.87;;;3.57;;
1336;SDS011;662;48.814;9.318;2023-08-12T11:32:48;3.10;;;2.80;;
1336;SDS011;662;48.814;9.318;2023-08-12T11:35:16;3.80;;;3.40;;
1336;SDS011;662;48.814;9.318;2023-08-12T11:37:43;2.87;;;2.67;;
1336;SDS011;662;48.814;9.318;2023-08-12T11:40:11;2.97;;;2.60;;
1336;SDS011;662;48.814;9.318;2023-08-12T11:42:40;3.50;;;3.20;;
1336;SDS011;662;48.814;9.318;2023-08-12T11:45:07;3.90;;;3.37;;
1336;SDS011;662;48.814;9.318;2023-08-12T11:47:39;4.63;;;3.43;;
1336;SDS011;662;48.814;9.318;2023-08-12T11:50:06;3.08;;;2.83;;
1336;SDS011;662;48.814;9.318;2023-08-12T11:52:33;2.67;;;2.47;;
1336;SDS011;662;48.814;9.318;2023-08-12T11:55:00;3.30;;;2.85;;
1336;SDS011;662;48.814;9.318;2023-08-12T11:57:26;3.15;;;2.85;;
1336;SDS011;662;48.814;9.318;2023-08-12T11:59:59;3.10;;;2.80;;
1336;SDS011;662;48.814;9.318;2023-08-12T12:02:26;3.10;;;2.90;;
1336;SDS011;662;48.814;9.318;2023-08-12T12:04:52;2.80;;;2.60;;
1336;SDS011;662;48.814;9.318;2023-08-12T12:07:19;4.60;;;3.23;;
1336;SDS011;662;48.814;9.318;2023-08-12T12:09:46;3.47;;;3.17;;
1336;SDS011;662;48.814;9.318;2023-08-12T12:12:15;1.83;;;1.73;;
1336;SDS011;662;48.814;9.318;2023-08-12T12:14:40;3.43;;;1.60;;
1336;SDS011;662;48.814;9.318;2023-08-12T12:17:09;2.27;;;1.60;;
1336;SDS011;662;48.814;9.318;2023-08-12T12:19:35;1.33;;;1.23;;
1336;SDS011;662;48.814;9.318;2023-08-12T12:22:02;2.33;;;2.13;;
1336;SDS011;662;48.814;9.318;2023-08-12T12:24:29;3.60;;;2.07;;
1336;SDS011;662;48.814;9.318;2023-08-12T12:26:55;2.03;;;1.87;;
1336;SDS011;662;48.814;9.318;2023-08-12T12:29:21;3.13;;;2.70;;
1336;SDS011;662;48.814;9.318;2023-08-12T12:31:47;3.10;;;2.80;;
1336;SDS011;662;48.814;9.318;2023-08-12T12:34:13;3.23;;;2.80;;
1336;SDS011;662;48.814;9.318;2023-08-12T12:36:39;5.30;;;2.97;;
1336;SDS011;662;48.814;9.318;2023-08-12T12:39:06;3.57;;;2.60;;
1336;SDS011;662;48.814;9.318;2023-08-12T12:41:32;4.27;;;2.80;;
1336;SDS011;662;48.814;9.318;2023-08-12T12:43:59;3.03;;;2.83;;
1336;SDS011;662;48.814;9.318;2023-08-12T12:46:26;3.00;;;2.53;;
1336;SDS011;662;48.814;9.318;2023-08-12T12:48:52;3.50;;;2.80;;
1336;SDS011;662;48.814;9.318;2023-08-12T12:51:18;3.87;;;3.07;;
1336;SDS011;662;48.814;9.318;2023-08-12T12:53:44;4.37;;;3.37;;
1336;SDS011;662;48.814;9.318;2023-08-12T12:56:09;3.57;;;2.80;;
1336;SDS011;662;48.814;9.318;2023-08-12T12:58:35;6.10;;;3.30;;
1336;SDS011;662;48.814;9.318;2023-08-12T13:01:02;3.00;;;2.70;;
1336;SDS011;662;48.814;9.318;2023-08-12T13:03:29;3.47;;;2.90;;
1336;SDS011;662;48.814;9.318;2023-08-12T13:05:55;3.90;;;3.07;;
1336;SDS011;662;48.814;9.318;2023-08-12T13:08:21;4.50;;;3.73;;
1336;SDS011;662;48.814;9.318;2023-08-12T13:10:47;3.60;;;3.30;;
1336;SDS011;662;48.814;9.318;2023-08-12T13:13:13;3.40;;;3.07;;
1336;SDS011;662;48.814;9.318;2023-08-12T13:15:43;4.67;;;3.77;;
1336;SDS011;662;48.814;9.318;2023-08-12T13:18:09;4.00;;;3.70;;
1336;SDS011;662;48.814;9.318;2023-08-12T13:20:35;4.73;;;3.90;;
1336;SDS011;662;48.814;9.318;2023-08-12T13:23:01;4.57;;;4.17;;
1336;SDS011;662;48.814;9.318;2023-08-12T13:25:30;3.43;;;3.13;;
1336;SDS011;662;48.814;9.318;2023-08-12T13:27:58;4.00;;;2.60;;
1336;SDS011;662;48.814;9.318;2023-08-12T13:30:28;4.20;;;3.87;;
1336;SDS011;662;48.814;9.318;2023-08-12T13:32:54;3.43;;;3.13;;
1336;SDS011;662;48.814;9.318;2023-08-12T13:35:22;4.37;;;3.70;;
1336;SDS011;662;48.814;9.318;2023-08-12T13:37:48;5.00;;;3.40;;
1336;SDS011;662;48.814;9.318;2023-08-12T13:40:14;3.60;;;3.30;;
1336;SDS011;662;48.814;9.318;2023-08-12T13:42:41;3.57;;;3.07;;
1336;SDS011;662;48.814;9.318;2023-08-12T13:45:07;4.60;;;3.20;;
1336;SDS011;662;48.814;9.318;2023-08-12T13:47:36;3.50;;;3.07;;
1336;SDS011;662;48.814;9.318;2023-08-12T13:50:01;4.17;;;3.80;;
1336;SDS011;662;48.814;9.318;2023-08-12T13:52:27;4.17;;;3.50;;
1336;SDS011;662;48.814;9.318;2023-08-12T13:54:53;4.20;;;3.80;;
1336;SDS011;662;48.814;9.318;2023-08-12T13:57:18;3.33;;;3.13;;
1336;SDS011;662;48.814;9.318;2023-08-12T13:59:44;4.50;;;3.90;;
1336;SDS011;662;48.814;9.318;2023-08-12T14:02:10;3.83;;;3.53;;
1336;SDS011;662;48.814;9.318;2023-08-12T14:04:35;4.73;;;4.00;;
1336;SDS011;662;48.814;9.318;2023-08-12T14:07:02;5.20;;;3.47;;
1336;SDS011;662;48.814;9.318;2023-08-12T14:09:28;3.63;;;3.03;;
1336;SDS011;662;48.814;9.318;2023-08-12T14:11:54;3.90;;;3.10;;
1336;SDS011;662;48.814;9.318;2023-08-12T14:14:20;3.77;;;3.47;;
1336;SDS011;662;48.814;9.318;2023-08-12T14:16:45;3.20;;;2.90;;
1336;SDS011;662;48.814;9.318;2023-08-12T14:19:11;3.70;;;3.40;;
1336;SDS011;662;48.814;9.318;2023-08-12T14:21:37;3.70;;;2.97;;
1336;SDS011;662;48.814;9.318;2023-08-12T14:24:02;4.60;;;3.60;;
1336;SDS011;662;48.814;9.318;2023-08-12T14:26:28;3.30;;;3.00;;
1336;SDS011;662;48.814;9.318;2023-08-12T14:28:54;3.33;;;3.03;;
1336;SDS011;662;48.814;9.318;2023-08-12T14:31:19;3.60;;;3.30;;
1336;SDS011;662;48.814;9.318;2023-08-12T14:33:45;5.57;;;3.13;;
1336;SDS011;662;48.814;9.318;2023-08-12T14:36:10;3.57;;;3.27;;
1336;SDS011;662;48.814;9.318;2023-08-12T14:38:36;3.60;;;3.10;;
1336;SDS011;662;48.814;9.318;2023-08-12T14:41:02;4.80;;;3.70;;
1336;SDS011;662;48.814;9.318;2023-08-12T14:43:27;3.60;;;3.30;;
1336;SDS011;662;48.814;9.318;2023-08-12T14:45:53;3.33;;;3.03;;
1336;SDS011;662;48.814;9.318;2023-08-12T14:48:18;4.27;;;3.83;;
1336;SDS011;662;48.814;9.318;2023-08-12T14:50:44;4.53;;;3.57;;
1336;SDS011;662;48.814;9.318;2023-08-12T14:53:10;3.70;;;3.40;;
1336;SDS011;662;48.814;9.318;2023-08-12T14:55:35;3.40;;;3.10;;
1336;SDS011;662;48.814;9.318;2023-08-12T14:58:01;3.77;;;3.47;;
1336;SDS011;662;48.814;9.318;2023-08-12T15:00:27;3.40;;;3.07;;
1336;SDS011;662;48.814;9.318;2023-08-12T15:02:53;4.13;;;3.80;;
1336;SDS011;662;48.814;9.318;2023-08-12T15:05:18;3.70;;;3.40;;
1336;SDS011;662;48.814;9.318;2023-08-12T15:07:44;3.10;;;2.90;;
1336;SDS011;662;48.814;9.318;2023-08-12T15:10:09;3.40;;;3.20;;
1336;SDS011;662;48.814;9.318;2023-08-12T15:12:35;3.50;;;3.20;;
1336;SDS011;662;48.814;9.318;2023-08-12T15:15:01;3.37;;;3.17;;
1336;SDS011;662;48.814;9.318;2023-08-12T15:17:27;3.40;;;2.80;;
1336;SDS011;662;48.814;9.318;2023-08-12T15:19:53;3.13;;;2.80;;
1336;SDS011;662;48.814;9.318;2023-08-12T15:22:18;3.73;;;2.90;;
1336;SDS011;662;48.814;9.318;2023-08-12T15:24:44;3.93;;;3.40;;
1336;SDS011;662;48.814;9.318;2023-08-12T15:27:10;2.97;;;2.70;;
1336;SDS011;662;48.814;9.318;2023-08-12T15:29:36;2.97;;;2.60;;
1336;SDS011;662;48.814;9.318;2023-08-12T15:32:01;3.00;;;2.80;;
1336;SDS011;662;48.814;9.318;2023-08-12T15:34:28;2.80;;;2.60;;
1336;SDS011;662;48.814;9.318;2023-08-12T15:36:54;2.50;;;2.30;;
1336;SDS011;662;48.814;9.318;2023-08-12T15:39:20;2.57;;;2.33;;